sensor_id;sensor_type;location;lat;lon;timestamp;P1;durP1;ratioP1;P2;durP2;ratioP2
26050;SDS011;13825;53.496;10.020;2022-10-22T00:02:12;17.37;;;9.30;;
26050;SDS011;13825;53.496;10.020;2022-10-22T00:04:43;16.97;;;9.47;;
26050;SDS011;13825;53.496;10.020;2022-10-22T00:07:10;15.23;;;9.37;;
26050;SDS011;13825;53.496;10.020;2022-10-22T00:09:37;17.23;;;9.60;;
26050;SDS011;13825;53.496;10.020;2022-10-22T00:12:05;17.13;;;9.97;;
26050;SDS011;13825;53.496;10.020;2022-10-22T00:14:32;18.77;;;9.80;;
26050;SDS011;13825;53.496;10.020;2022-10-22T00:16:59;18.97;;;9.67;;
26050;SDS011;13825;53.496;10.020;2022-10-22T00:19:26;14.70;;;9.23;;
26050;SDS011;13825;53.496;10.020;2022-10-22T00:21:53;15.33;;;9.20;;
26050;SDS011;13825;53.496;10.020;2022-10-22T00:24:20;16.27;;;9.93;;
26050;SDS011;13825;53.496;10.020;2022-10-22T00:26:47;13.53;;;8.23;;
26050;SDS011;13825;53.496;10.020;2022-10-22T00:29:15;14.00;;;8.80;;
26050;SDS011;13825;53.496;10.020;2022-10-22T00:31:44;13.17;;;7.90;;
26050;SDS011;13825;53.496;10.020;2022-10-22T00:34:13;16.27;;;9.67;;
26050;SDS011;13825;53.496;10.020;2022-10-22T00:36:41;15.23;;;8.80;;
26050;SDS011;13825;53.496;10.020;2022-10-22T00:39:07;17.67;;;9.63;;
26050;SDS011;13825;53.496;10.020;2022-10-22T00:41:34;16.07;;;8.80;;
26050;SDS011;13825;53.496;10.020;2022-10-22T00:44:02;17.07;;;9.90;;
26050;SDS011;13825;53.496;10.020;2022-10-22T00:46:31;17.07;;;9.67;;
26050;SDS011;13825;53.496;10.020;2022-10-22T00:48:59;18.10;;;9.63;;
26050;SDS011;13825;53.496;10.020;2022-10-22T00:51:29;14.10;;;8.77;;
26050;SDS011;13825;53.496;10.020;2022-10-22T00:53:59;19.27;;;9.87;;
26050;SDS011;13825;53.496;10.020;2022-10-22T00:56:29;17.90;;;9.40;;
26050;SDS011;13825;53.496;10.020;2022-10-22T00:58:57;14.67;;;8.43;;
26050;SDS011;13825;53.496;10.020;2022-10-22T01:01:26;18.40;;;9.87;;
26050;SDS011;13825;53.496;10.020;2022-10-22T01:03:56;16.87;;;9.57;;
26050;SDS011;13825;53.496;10.020;2022-10-22T01:06:24;15.10;;;8.80;;
26050;SDS011;13825;53.496;10.020;2022-10-22T01:09:02;17.27;;;10.33;;
26050;SDS011;13825;53.496;10.020;2022-10-22T01:11:41;15.87;;;9.07;;
26050;SDS011;13825;53.496;10.020;2022-10-22T01:14:17;14.13;;;9.33;;
26050;SDS011;13825;53.496;10.020;2022-10-22T01:16:52;14.80;;;10.20;;
26050;SDS011;13825;53.496;10.020;2022-10-22T01:19:28;17.47;;;9.47;;
26050;SDS011;13825;53.496;10.020;2022-10-22T01:22:11;18.33;;;9.53;;
26050;SDS011;13825;53.496;10.020;2022-10-22T01:24:50;15.73;;;9.17;;
26050;SDS011;13825;53.496;10.020;2022-10-22T01:27:26;15.27;;;9.17;;
26050;SDS011;13825;53.496;10.020;2022-10-22T01:30:00;15.57;;;8.57;;
26050;SDS011;13825;53.496;10.020;2022-10-22T01:32:31;15.67;;;9.33;;
26050;SDS011;13825;53.496;10.020;2022-10-22T01:35:03;16.20;;;9.07;;
26050;SDS011;13825;53.496;10.020;2022-10-22T01:37:33;15.37;;;9.10;;
26050;SDS011;13825;53.496;10.020;2022-10-22T01:40:05;17.13;;;9.40;;
26050;SDS011;13825;53.496;10.020;2022-10-22T01:42:34;13.47;;;8.13;;
26050;SDS011;13825;53.496;10.020;2022-10-22T01:45:04;14.03;;;8.00;;
26050;SDS011;13825;53.496;10.020;2022-10-22T01:47:38;10.97;;;8.13;;
26050;SDS011;13825;53.496;10.020;2022-10-22T01:50:24;13.97;;;7.80;;
26050;SDS011;13825;53.496;10.020;2022-10-22T01:55:55;12.77;;;7.00;;
26050;SDS011;13825;53.496;10.020;2022-10-22T01:58:37;11.27;;;7.03;;
26050;SDS011;13825;53.496;10.020;2022-10-22T02:01:11;10.37;;;6.73;;
26050;SDS011;13825;53.496;10.020;2022-10-22T02:03:44;14.13;;;7.67;;
26050;SDS011;13825;53.496;10.020;2022-10-22T02:06:15;16.37;;;8.33;;
26050;SDS011;13825;53.496;10.020;2022-10-22T02:08:46;13.67;;;7.03;;
26050;SDS011;13825;53.496;10.020;2022-10-22T02:11:15;13.80;;;7.33;;
26050;SDS011;13825;53.496;10.020;2022-10-22T02:13:43;16.53;;;5.10;;
26050;SDS011;13825;53.496;10.020;2022-10-22T02:16:15;9.90;;;6.00;;
26050;SDS011;13825;53.496;10.020;2022-10-22T02:18:46;11.97;;;6.97;;
26050;SDS011;13825;53.496;10.020;2022-10-22T02:21:16;8.93;;;5.70;;
26050;SDS011;13825;53.496;10.020;2022-10-22T02:23:43;65.93;;;6.73;;
26050;SDS011;13825;53.496;10.020;2022-10-22T02:26:13;96.20;;;8.17;;
26050;SDS011;13825;53.496;10.020;2022-10-22T02:28:45;8.43;;;5.43;;
26050;SDS011;13825;53.496;10.020;2022-10-22T02:31:20;9.17;;;6.13;;
26050;SDS011;13825;53.496;10.020;2022-10-22T02:33:51;9.77;;;5.93;;
26050;SDS011;13825;53.496;10.020;2022-10-22T02:36:21;11.03;;;6.00;;
26050;SDS011;13825;53.496;10.020;2022-10-22T02:38:49;7.83;;;5.40;;
26050;SDS011;13825;53.496;10.020;2022-10-22T02:41:17;9.03;;;6.03;;
26050;SDS011;13825;53.496;10.020;2022-10-22T02:43:47;9.83;;;5.47;;
26050;SDS011;13825;53.496;10.020;2022-10-22T02:46:15;7.80;;;5.17;;
26050;SDS011;13825;53.496;10.020;2022-10-22T02:48:43;7.53;;;4.93;;
26050;SDS011;13825;53.496;10.020;2022-10-22T02:51:11;9.10;;;5.33;;
26050;SDS011;13825;53.496;10.020;2022-10-22T02:53:38;8.53;;;5.37;;
26050;SDS011;13825;53.496;10.020;2022-10-22T02:56:05;9.60;;;4.73;;
26050;SDS011;13825;53.496;10.020;2022-10-22T02:58:32;7.57;;;4.90;;
26050;SDS011;13825;53.496;10.020;2022-10-22T03:00:59;10.97;;;5.67;;
26050;SDS011;13825;53.496;10.020;2022-10-22T03:03:25;8.73;;;5.73;;
26050;SDS011;13825;53.496;10.020;2022-10-22T03:05:54;9.50;;;6.03;;
26050;SDS011;13825;53.496;10.020;2022-10-22T03:08:20;12.20;;;6.33;;
26050;SDS011;13825;53.496;10.020;2022-10-22T03:10:47;14.17;;;6.47;;
26050;SDS011;13825;53.496;10.020;2022-10-22T03:13:14;8.83;;;5.13;;
26050;SDS011;13825;53.496;10.020;2022-10-22T03:15:41;12.47;;;6.50;;
26050;SDS011;13825;53.496;10.020;2022-10-22T03:18:08;12.23;;;5.93;;
26050;SDS011;13825;53.496;10.020;2022-10-22T03:20:34;11.63;;;5.47;;
26050;SDS011;13825;53.496;10.020;2022-10-22T03:23:03;7.60;;;4.60;;
26050;SDS011;13825;53.496;10.020;2022-10-22T03:25:30;7.57;;;4.50;;
26050;SDS011;13825;53.496;10.020;2022-10-22T03:27:59;7.10;;;4.33;;
26050;SDS011;13825;53.496;10.020;2022-10-22T03:30:29;10.70;;;5.80;;
26050;SDS011;13825;53.496;10.020;2022-10-22T03:32:56;7.30;;;5.13;;
26050;SDS011;13825;53.496;10.020;2022-10-22T03:35:23;7.03;;;4.37;;
26050;SDS011;13825;53.496;10.020;2022-10-22T03:37:50;9.77;;;6.13;;
26050;SDS011;13825;53.496;10.020;2022-10-22T03:40:18;8.60;;;5.13;;
26050;SDS011;13825;53.496;10.020;2022-10-22T03:42:46;8.80;;;5.17;;
26050;SDS011;13825;53.496;10.020;2022-10-22T03:45:13;7.23;;;4.43;;
26050;SDS011;13825;53.496;10.020;2022-10-22T03:47:39;11.53;;;5.30;;
26050;SDS011;13825;53.496;10.020;2022-10-22T03:50:07;9.47;;;5.70;;
26050;SDS011;13825;53.496;10.020;2022-10-22T03:52:35;7.60;;;4.70;;
26050;SDS011;13825;53.496;10.020;2022-10-22T03:55:03;8.33;;;4.90;;
26050;SDS011;13825;53.496;10.020;2022-10-22T03:57:31;5.83;;;4.10;;
26050;SDS011;13825;53.496;10.020;2022-10-22T03:59:58;6.50;;;4.30;;
26050;SDS011;13825;53.496;10.020;2022-10-22T04:02:25;6.87;;;4.43;;
26050;SDS011;13825;53.496;10.020;2022-10-22T04:04:52;5.67;;;4.03;;
26050;SDS011;13825;53.496;10.020;2022-10-22T04:07:19;7.67;;;4.93;;
26050;SDS011;13825;53.496;10.020;2022-10-22T04:09:45;7.40;;;4.63;;
26050;SDS011;13825;53.496;10.020;2022-10-22T04:12:12;9.57;;;5.43;;
26050;SDS011;13825;53.496;10.020;2022-10-22T04:14:40;9.07;;;5.03;;
26050;SDS011;13825;53.496;10.020;2022-10-22T04:17:07;7.20;;;4.73;;
26050;SDS011;13825;53.496;10.020;2022-10-22T04:19:34;8.27;;;5.47;;
26050;SDS011;13825;53.496;10.020;2022-10-22T04:22:01;12.37;;;5.47;;
26050;SDS011;13825;53.496;10.020;2022-10-22T04:24:29;8.83;;;5.50;;
26050;SDS011;13825;53.496;10.020;2022-10-22T04:26:56;10.50;;;6.07;;
26050;SDS011;13825;53.496;10.020;2022-10-22T04:29:23;9.33;;;5.70;;
26050;SDS011;13825;53.496;10.020;2022-10-22T04:31:52;7.17;;;4.70;;
26050;SDS011;13825;53.496;10.020;2022-10-22T04:34:19;9.57;;;5.27;;
26050;SDS011;13825;53.496;10.020;2022-10-22T04:36:46;11.27;;;6.20;;
26050;SDS011;13825;53.496;10.020;2022-10-22T04:39:13;8.83;;;5.37;;
26050;SDS011;13825;53.496;10.020;2022-10-22T04:41:40;7.93;;;4.70;;
26050;SDS011;13825;53.496;10.020;2022-10-22T04:44:06;11.03;;;4.97;;
26050;SDS011;13825;53.496;10.020;2022-10-22T04:46:33;9.80;;;6.00;;
26050;SDS011;13825;53.496;10.020;2022-10-22T04:49:02;10.73;;;5.20;;
26050;SDS011;13825;53.496;10.020;2022-10-22T04:51:29;8.50;;;5.47;;
26050;SDS011;13825;53.496;10.020;2022-10-22T04:53:56;11.83;;;5.67;;
26050;SDS011;13825;53.496;10.020;2022-10-22T04:56:24;31.43;;;6.83;;
26050;SDS011;13825;53.496;10.020;2022-10-22T04:58:53;12.50;;;5.87;;
26050;SDS011;13825;53.496;10.020;2022-10-22T05:01:22;17.83;;;6.93;;
26050;SDS011;13825;53.496;10.020;2022-10-22T05:03:51;17.40;;;7.80;;
26050;SDS011;13825;53.496;10.020;2022-10-22T05:06:20;14.00;;;7.43;;
26050;SDS011;13825;53.496;10.020;2022-10-22T05:08:51;16.07;;;7.07;;
26050;SDS011;13825;53.496;10.020;2022-10-22T05:11:19;12.57;;;6.77;;
26050;SDS011;13825;53.496;10.020;2022-10-22T05:13:48;10.27;;;6.40;;
26050;SDS011;13825;53.496;10.020;2022-10-22T05:16:15;9.67;;;6.73;;
26050;SDS011;13825;53.496;10.020;2022-10-22T05:18:43;12.07;;;6.27;;
26050;SDS011;13825;53.496;10.020;2022-10-22T05:21:12;11.13;;;5.90;;
26050;SDS011;13825;53.496;10.020;2022-10-22T05:23:42;12.33;;;7.10;;
26050;SDS011;13825;53.496;10.020;2022-10-22T05:26:11;8.90;;;5.70;;
26050;SDS011;13825;53.496;10.020;2022-10-22T05:28:39;13.03;;;6.33;;
26050;SDS011;13825;53.496;10.020;2022-10-22T05:31:07;10.90;;;6.07;;
26050;SDS011;13825;53.496;10.020;2022-10-22T05:33:36;11.23;;;6.80;;
26050;SDS011;13825;53.496;10.020;2022-10-22T05:36:04;12.10;;;6.67;;
26050;SDS011;13825;53.496;10.020;2022-10-22T05:38:32;9.80;;;5.97;;
26050;SDS011;13825;53.496;10.020;2022-10-22T05:41:02;11.23;;;6.50;;
26050;SDS011;13825;53.496;10.020;2022-10-22T05:43:31;9.93;;;6.10;;
26050;SDS011;13825;53.496;10.020;2022-10-22T05:46:00;9.40;;;5.93;;
26050;SDS011;13825;53.496;10.020;2022-10-22T05:48:28;9.70;;;6.17;;
26050;SDS011;13825;53.496;10.020;2022-10-22T05:50:56;13.17;;;6.30;;
26050;SDS011;13825;53.496;10.020;2022-10-22T05:53:28;9.40;;;5.73;;
26050;SDS011;13825;53.496;10.020;2022-10-22T05:55:58;10.53;;;5.17;;
26050;SDS011;13825;53.496;10.020;2022-10-22T05:58:27;10.07;;;6.40;;
26050;SDS011;13825;53.496;10.020;2022-10-22T06:00:59;10.50;;;6.63;;
26050;SDS011;13825;53.496;10.020;2022-10-22T06:03:26;10.33;;;6.53;;
26050;SDS011;13825;53.496;10.020;2022-10-22T06:05:56;9.90;;;5.93;;
26050;SDS011;13825;53.496;10.020;2022-10-22T06:08:25;9.97;;;6.63;;
26050;SDS011;13825;53.496;10.020;2022-10-22T06:10:52;8.70;;;5.47;;
26050;SDS011;13825;53.496;10.020;2022-10-22T06:13:19;11.77;;;6.00;;
26050;SDS011;13825;53.496;10.020;2022-10-22T06:15:49;8.77;;;6.23;;
26050;SDS011;13825;53.496;10.020;2022-10-22T06:18:17;9.63;;;6.00;;
26050;SDS011;13825;53.496;10.020;2022-10-22T06:20:45;8.77;;;5.70;;
26050;SDS011;13825;53.496;10.020;2022-10-22T06:23:12;7.63;;;5.63;;
26050;SDS011;13825;53.496;10.020;2022-10-22T06:25:40;10.77;;;6.87;;
26050;SDS011;13825;53.496;10.020;2022-10-22T06:28:08;9.83;;;6.30;;
26050;SDS011;13825;53.496;10.020;2022-10-22T06:30:35;8.90;;;6.03;;
26050;SDS011;13825;53.496;10.020;2022-10-22T06:33:04;12.03;;;6.83;;
26050;SDS011;13825;53.496;10.020;2022-10-22T06:35:31;10.70;;;6.20;;
26050;SDS011;13825;53.496;10.020;2022-10-22T06:38:00;10.23;;;6.00;;
26050;SDS011;13825;53.496;10.020;2022-10-22T06:48:02;10.17;;;6.63;;
26050;SDS011;13825;53.496;10.020;2022-10-22T06:54:24;8.90;;;5.67;;
26050;SDS011;13825;53.496;10.020;2022-10-22T07:28:43;12.63;;;7.63;;
26050;SDS011;13825;53.496;10.020;2022-10-22T07:31:16;13.77;;;8.23;;
26050;SDS011;13825;53.496;10.020;2022-10-22T07:33:51;13.93;;;8.70;;
26050;SDS011;13825;53.496;10.020;2022-10-22T07:36:42;16.50;;;9.07;;
26050;SDS011;13825;53.496;10.020;2022-10-22T07:39:16;15.07;;;8.50;;
26050;SDS011;13825;53.496;10.020;2022-10-22T07:42:02;20.20;;;9.57;;
26050;SDS011;13825;53.496;10.020;2022-10-22T07:45:00;19.10;;;10.90;;
26050;SDS011;13825;53.496;10.020;2022-10-22T07:47:32;17.97;;;10.57;;
26050;SDS011;13825;53.496;10.020;2022-10-22T07:50:05;20.53;;;12.03;;
26050;SDS011;13825;53.496;10.020;2022-10-22T07:52:33;21.23;;;12.60;;
26050;SDS011;13825;53.496;10.020;2022-10-22T07:55:05;21.67;;;12.43;;
26050;SDS011;13825;53.496;10.020;2022-10-22T07:57:35;23.53;;;12.00;;
26050;SDS011;13825;53.496;10.020;2022-10-22T08:00:06;20.03;;;11.83;;
26050;SDS011;13825;53.496;10.020;2022-10-22T08:02:37;24.27;;;12.87;;
26050;SDS011;13825;53.496;10.020;2022-10-22T08:05:07;29.17;;;12.83;;
26050;SDS011;13825;53.496;10.020;2022-10-22T08:07:37;23.23;;;12.67;;
26050;SDS011;13825;53.496;10.020;2022-10-22T08:10:27;24.77;;;12.57;;
26050;SDS011;13825;53.496;10.020;2022-10-22T08:12:55;21.47;;;12.20;;
26050;SDS011;13825;53.496;10.020;2022-10-22T08:15:34;18.80;;;11.53;;
26050;SDS011;13825;53.496;10.020;2022-10-22T08:18:19;19.93;;;10.87;;
26050;SDS011;13825;53.496;10.020;2022-10-22T08:20:52;22.57;;;12.23;;
26050;SDS011;13825;53.496;10.020;2022-10-22T08:24:08;16.67;;;11.80;;
26050;SDS011;13825;53.496;10.020;2022-10-22T08:26:56;17.77;;;10.83;;
26050;SDS011;13825;53.496;10.020;2022-10-22T08:29:24;18.53;;;11.50;;
26050;SDS011;13825;53.496;10.020;2022-10-22T08:31:58;15.20;;;10.30;;
26050;SDS011;13825;53.496;10.020;2022-10-22T08:34:41;15.60;;;10.43;;
26050;SDS011;13825;53.496;10.020;2022-10-22T08:37:12;17.70;;;9.57;;
26050;SDS011;13825;53.496;10.020;2022-10-22T08:43:07;17.03;;;9.30;;
26050;SDS011;13825;53.496;10.020;2022-10-22T08:46:02;12.53;;;8.77;;
26050;SDS011;13825;53.496;10.020;2022-10-22T08:48:51;15.63;;;8.97;;
26050;SDS011;13825;53.496;10.020;2022-10-22T08:51:32;12.33;;;7.83;;
26050;SDS011;13825;53.496;10.020;2022-10-22T08:54:24;15.00;;;9.57;;
26050;SDS011;13825;53.496;10.020;2022-10-22T08:57:13;12.70;;;7.73;;
26050;SDS011;13825;53.496;10.020;2022-10-22T09:00:03;10.60;;;7.50;;
26050;SDS011;13825;53.496;10.020;2022-10-22T09:02:45;10.80;;;6.50;;
26050;SDS011;13825;53.496;10.020;2022-10-22T09:05:40;9.70;;;7.00;;
26050;SDS011;13825;53.496;10.020;2022-10-22T09:08:32;11.77;;;6.90;;
26050;SDS011;13825;53.496;10.020;2022-10-22T09:11:19;9.20;;;5.23;;
26050;SDS011;13825;53.496;10.020;2022-10-22T09:13:55;9.23;;;4.17;;
26050;SDS011;13825;53.496;10.020;2022-10-22T09:16:42;9.77;;;4.07;;
26050;SDS011;13825;53.496;10.020;2022-10-22T09:19:35;10.53;;;4.23;;
26050;SDS011;13825;53.496;10.020;2022-10-22T09:22:32;6.73;;;3.77;;
26050;SDS011;13825;53.496;10.020;2022-10-22T09:28:43;5.83;;;3.73;;
26050;SDS011;13825;53.496;10.020;2022-10-22T09:31:50;6.07;;;3.60;;
26050;SDS011;13825;53.496;10.020;2022-10-22T09:34:23;8.10;;;4.00;;
26050;SDS011;13825;53.496;10.020;2022-10-22T09:37:02;5.70;;;3.60;;
26050;SDS011;13825;53.496;10.020;2022-10-22T09:39:43;5.20;;;3.17;;
26050;SDS011;13825;53.496;10.020;2022-10-22T09:42:19;5.30;;;3.20;;
26050;SDS011;13825;53.496;10.020;2022-10-22T09:44:51;5.60;;;3.47;;
26050;SDS011;13825;53.496;10.020;2022-10-22T09:47:42;5.63;;;2.80;;
26050;SDS011;13825;53.496;10.020;2022-10-22T09:50:21;7.00;;;3.20;;
26050;SDS011;13825;53.496;10.020;2022-10-22T09:52:54;6.47;;;2.83;;
26050;SDS011;13825;53.496;10.020;2022-10-22T09:55:40;4.23;;;2.90;;
26050;SDS011;13825;53.496;10.020;2022-10-22T09:58:11;7.03;;;2.63;;
26050;SDS011;13825;53.496;10.020;2022-10-22T10:00:42;7.80;;;2.70;;
26050;SDS011;13825;53.496;10.020;2022-10-22T10:03:22;5.13;;;2.70;;
26050;SDS011;13825;53.496;10.020;2022-10-22T10:09:15;4.63;;;2.43;;
26050;SDS011;13825;53.496;10.020;2022-10-22T10:11:47;7.33;;;2.67;;
26050;SDS011;13825;53.496;10.020;2022-10-22T10:14:24;4.50;;;2.67;;
26050;SDS011;13825;53.496;10.020;2022-10-22T10:17:04;5.53;;;2.97;;
26050;SDS011;13825;53.496;10.020;2022-10-22T10:19:44;4.07;;;2.60;;
26050;SDS011;13825;53.496;10.020;2022-10-22T10:22:29;6.37;;;2.77;;
26050;SDS011;13825;53.496;10.020;2022-10-22T10:25:25;4.30;;;2.63;;
26050;SDS011;13825;53.496;10.020;2022-10-22T10:38:15;3.80;;;2.03;;
26050;SDS011;13825;53.496;10.020;2022-10-22T10:41:00;3.70;;;2.20;;
26050;SDS011;13825;53.496;10.020;2022-10-22T10:44:01;4.13;;;2.00;;
26050;SDS011;13825;53.496;10.020;2022-10-22T10:46:43;4.57;;;2.10;;
26050;SDS011;13825;53.496;10.020;2022-10-22T10:49:19;4.70;;;1.80;;
26050;SDS011;13825;53.496;10.020;2022-10-22T10:51:55;3.23;;;1.60;;
26050;SDS011;13825;53.496;10.020;2022-10-22T10:54:33;2.57;;;1.83;;
26050;SDS011;13825;53.496;10.020;2022-10-22T10:57:08;6.33;;;2.10;;
26050;SDS011;13825;53.496;10.020;2022-10-22T10:59:56;3.77;;;1.90;;
26050;SDS011;13825;53.496;10.020;2022-10-22T11:02:37;2.43;;;1.67;;
26050;SDS011;13825;53.496;10.020;2022-10-22T11:05:31;4.70;;;2.27;;
26050;SDS011;13825;53.496;10.020;2022-10-22T11:08:03;7.03;;;2.53;;
26050;SDS011;13825;53.496;10.020;2022-10-22T11:10:41;3.77;;;2.50;;
26050;SDS011;13825;53.496;10.020;2022-10-22T11:13:13;5.20;;;2.30;;
26050;SDS011;13825;53.496;10.020;2022-10-22T11:15:49;4.80;;;2.40;;
26050;SDS011;13825;53.496;10.020;2022-10-22T11:18:22;7.27;;;2.47;;
26050;SDS011;13825;53.496;10.020;2022-10-22T11:20:57;4.80;;;2.40;;
26050;SDS011;13825;53.496;10.020;2022-10-22T11:23:37;5.00;;;1.83;;
26050;SDS011;13825;53.496;10.020;2022-10-22T11:26:12;5.20;;;1.90;;
26050;SDS011;13825;53.496;10.020;2022-10-22T11:28:46;3.43;;;2.13;;
26050;SDS011;13825;53.496;10.020;2022-10-22T11:31:18;5.87;;;2.13;;
26050;SDS011;13825;53.496;10.020;2022-10-22T11:33:51;3.00;;;2.07;;
26050;SDS011;13825;53.496;10.020;2022-10-22T11:36:21;3.83;;;1.97;;
26050;SDS011;13825;53.496;10.020;2022-10-22T11:38:50;2.83;;;1.73;;
26050;SDS011;13825;53.496;10.020;2022-10-22T11:41:21;4.80;;;2.00;;
26050;SDS011;13825;53.496;10.020;2022-10-22T11:44:04;4.73;;;2.10;;
26050;SDS011;13825;53.496;10.020;2022-10-22T11:46:43;2.80;;;1.70;;
26050;SDS011;13825;53.496;10.020;2022-10-22T11:49:17;2.57;;;1.90;;
26050;SDS011;13825;53.496;10.020;2022-10-22T11:51:49;2.97;;;1.70;;
26050;SDS011;13825;53.496;10.020;2022-10-22T11:54:27;5.00;;;2.17;;
26050;SDS011;13825;53.496;10.020;2022-10-22T11:57:21;3.50;;;1.63;;
26050;SDS011;13825;53.496;10.020;2022-10-22T11:59:53;4.40;;;1.90;;
26050;SDS011;13825;53.496;10.020;2022-10-22T12:02:24;3.53;;;2.20;;
26050;SDS011;13825;53.496;10.020;2022-10-22T12:07:58;6.37;;;2.10;;
26050;SDS011;13825;53.496;10.020;2022-10-22T12:10:32;2.97;;;1.83;;
26050;SDS011;13825;53.496;10.020;2022-10-22T12:13:04;3.67;;;2.17;;
26050;SDS011;13825;53.496;10.020;2022-10-22T12:15:45;7.43;;;2.10;;
26050;SDS011;13825;53.496;10.020;2022-10-22T12:18:12;3.80;;;2.43;;
26050;SDS011;13825;53.496;10.020;2022-10-22T12:20:40;3.93;;;2.10;;
26050;SDS011;13825;53.496;10.020;2022-10-22T12:23:10;5.57;;;2.37;;
26050;SDS011;13825;53.496;10.020;2022-10-22T12:25:38;3.90;;;2.20;;
26050;SDS011;13825;53.496;10.020;2022-10-22T12:28:08;6.50;;;2.23;;
26050;SDS011;13825;53.496;10.020;2022-10-22T12:30:36;3.77;;;2.73;;
26050;SDS011;13825;53.496;10.020;2022-10-22T12:33:04;3.47;;;2.40;;
26050;SDS011;13825;53.496;10.020;2022-10-22T12:35:44;2.70;;;2.40;;
26050;SDS011;13825;53.496;10.020;2022-10-22T12:38:13;4.50;;;2.43;;
26050;SDS011;13825;53.496;10.020;2022-10-22T12:40:41;5.63;;;3.10;;
26050;SDS011;13825;53.496;10.020;2022-10-22T12:43:11;3.57;;;2.90;;
26050;SDS011;13825;53.496;10.020;2022-10-22T12:45:41;3.93;;;2.80;;
26050;SDS011;13825;53.496;10.020;2022-10-22T12:48:13;5.33;;;3.20;;
26050;SDS011;13825;53.496;10.020;2022-10-22T12:50:47;4.50;;;3.00;;
26050;SDS011;13825;53.496;10.020;2022-10-22T12:53:21;2.87;;;2.53;;
26050;SDS011;13825;53.496;10.020;2022-10-22T12:55:56;5.73;;;2.87;;
26050;SDS011;13825;53.496;10.020;2022-10-22T12:58:31;4.83;;;2.90;;
26050;SDS011;13825;53.496;10.020;2022-10-22T13:01:04;6.10;;;3.03;;
26050;SDS011;13825;53.496;10.020;2022-10-22T13:03:33;6.07;;;3.07;;
26050;SDS011;13825;53.496;10.020;2022-10-22T13:06:19;4.73;;;2.67;;
26050;SDS011;13825;53.496;10.020;2022-10-22T13:08:57;3.83;;;2.60;;
26050;SDS011;13825;53.496;10.020;2022-10-22T13:11:32;3.43;;;2.47;;
26050;SDS011;13825;53.496;10.020;2022-10-22T13:14:05;5.40;;;2.77;;
26050;SDS011;13825;53.496;10.020;2022-10-22T13:16:41;3.80;;;2.57;;
26050;SDS011;13825;53.496;10.020;2022-10-22T13:22:35;4.23;;;2.80;;
26050;SDS011;13825;53.496;10.020;2022-10-22T13:25:18;3.57;;;2.47;;
26050;SDS011;13825;53.496;10.020;2022-10-22T13:27:48;3.50;;;2.20;;
26050;SDS011;13825;53.496;10.020;2022-10-22T13:30:19;5.07;;;2.50;;
26050;SDS011;13825;53.496;10.020;2022-10-22T13:32:49;8.40;;;2.70;;
26050;SDS011;13825;53.496;10.020;2022-10-22T13:35:19;4.30;;;2.43;;
26050;SDS011;13825;53.496;10.020;2022-10-22T13:37:49;5.13;;;2.90;;
26050;SDS011;13825;53.496;10.020;2022-10-22T13:40:23;5.43;;;2.40;;
26050;SDS011;13825;53.496;10.020;2022-10-22T13:42:52;2.27;;;2.07;;
26050;SDS011;13825;53.496;10.020;2022-10-22T13:45:21;4.50;;;2.20;;
26050;SDS011;13825;53.496;10.020;2022-10-22T13:47:48;4.70;;;2.10;;
26050;SDS011;13825;53.496;10.020;2022-10-22T13:50:18;3.03;;;2.20;;
26050;SDS011;13825;53.496;10.020;2022-10-22T13:52:46;8.53;;;3.03;;
26050;SDS011;13825;53.496;10.020;2022-10-22T13:55:17;4.30;;;2.63;;
26050;SDS011;13825;53.496;10.020;2022-10-22T13:57:45;5.00;;;2.63;;
26050;SDS011;13825;53.496;10.020;2022-10-22T14:00:14;4.30;;;2.43;;
26050;SDS011;13825;53.496;10.020;2022-10-22T14:02:45;3.30;;;2.40;;
26050;SDS011;13825;53.496;10.020;2022-10-22T14:05:14;8.07;;;2.10;;
26050;SDS011;13825;53.496;10.020;2022-10-22T14:07:43;7.20;;;2.47;;
26050;SDS011;13825;53.496;10.020;2022-10-22T14:10:15;3.60;;;2.20;;
26050;SDS011;13825;53.496;10.020;2022-10-22T14:12:45;5.63;;;2.30;;
26050;SDS011;13825;53.496;10.020;2022-10-22T14:15:13;4.33;;;2.20;;
26050;SDS011;13825;53.496;10.020;2022-10-22T14:17:42;4.43;;;2.10;;
26050;SDS011;13825;53.496;10.020;2022-10-22T14:20:14;4.53;;;1.83;;
26050;SDS011;13825;53.496;10.020;2022-10-22T14:25:56;2.97;;;2.07;;
26050;SDS011;13825;53.496;10.020;2022-10-22T14:28:25;4.50;;;2.40;;
26050;SDS011;13825;53.496;10.020;2022-10-22T14:30:53;6.23;;;2.43;;
26050;SDS011;13825;53.496;10.020;2022-10-22T14:36:08;5.63;;;1.90;;
26050;SDS011;13825;53.496;10.020;2022-10-22T14:38:36;4.43;;;2.03;;
26050;SDS011;13825;53.496;10.020;2022-10-22T14:41:04;5.07;;;2.00;;
26050;SDS011;13825;53.496;10.020;2022-10-22T14:43:42;4.30;;;2.13;;
26050;SDS011;13825;53.496;10.020;2022-10-22T14:46:15;6.13;;;2.57;;
26050;SDS011;13825;53.496;10.020;2022-10-22T14:48:45;7.07;;;3.50;;
26050;SDS011;13825;53.496;10.020;2022-10-22T14:51:13;6.10;;;2.70;;
26050;SDS011;13825;53.496;10.020;2022-10-22T14:53:50;3.43;;;2.40;;
26050;SDS011;13825;53.496;10.020;2022-10-22T14:56:19;5.83;;;2.57;;
26050;SDS011;13825;53.496;10.020;2022-10-22T14:58:46;3.57;;;2.33;;
26050;SDS011;13825;53.496;10.020;2022-10-22T15:01:13;4.70;;;2.50;;
26050;SDS011;13825;53.496;10.020;2022-10-22T15:03:46;9.40;;;3.43;;
26050;SDS011;13825;53.496;10.020;2022-10-22T15:06:14;3.73;;;2.40;;
26050;SDS011;13825;53.496;10.020;2022-10-22T15:08:41;4.60;;;2.30;;
26050;SDS011;13825;53.496;10.020;2022-10-22T15:11:12;2.93;;;2.53;;
26050;SDS011;13825;53.496;10.020;2022-10-22T15:13:39;5.70;;;2.60;;
26050;SDS011;13825;53.496;10.020;2022-10-22T15:16:08;4.37;;;2.47;;
26050;SDS011;13825;53.496;10.020;2022-10-22T15:18:36;5.13;;;2.50;;
26050;SDS011;13825;53.496;10.020;2022-10-22T15:21:05;6.13;;;3.00;;
26050;SDS011;13825;53.496;10.020;2022-10-22T15:23:34;4.47;;;2.73;;
26050;SDS011;13825;53.496;10.020;2022-10-22T15:26:05;4.63;;;2.30;;
26050;SDS011;13825;53.496;10.020;2022-10-22T15:28:32;4.80;;;2.80;;
26050;SDS011;13825;53.496;10.020;2022-10-22T15:30:59;6.57;;;3.50;;
26050;SDS011;13825;53.496;10.020;2022-10-22T15:33:27;3.13;;;2.47;;
26050;SDS011;13825;53.496;10.020;2022-10-22T15:35:54;6.63;;;2.90;;
26050;SDS011;13825;53.496;10.020;2022-10-22T15:38:28;6.17;;;2.90;;
26050;SDS011;13825;53.496;10.020;2022-10-22T15:40:59;6.20;;;2.67;;
26050;SDS011;13825;53.496;10.020;2022-10-22T15:43:27;4.07;;;2.90;;
26050;SDS011;13825;53.496;10.020;2022-10-22T15:46:02;5.13;;;3.00;;
26050;SDS011;13825;53.496;10.020;2022-10-22T15:48:39;3.47;;;3.10;;
26050;SDS011;13825;53.496;10.020;2022-10-22T15:51:07;6.37;;;3.97;;
26050;SDS011;13825;53.496;10.020;2022-10-22T15:53:41;4.40;;;3.50;;
26050;SDS011;13825;53.496;10.020;2022-10-22T15:56:11;5.80;;;4.20;;
26050;SDS011;13825;53.496;10.020;2022-10-22T15:58:38;8.90;;;5.67;;
26050;SDS011;13825;53.496;10.020;2022-10-22T16:01:04;10.43;;;5.40;;
26050;SDS011;13825;53.496;10.020;2022-10-22T16:03:38;10.33;;;4.47;;
26050;SDS011;13825;53.496;10.020;2022-10-22T16:06:06;6.87;;;4.83;;
26050;SDS011;13825;53.496;10.020;2022-10-22T16:08:46;7.70;;;6.33;;
26050;SDS011;13825;53.496;10.020;2022-10-22T16:11:16;6.83;;;4.73;;
26050;SDS011;13825;53.496;10.020;2022-10-22T16:13:44;6.40;;;4.57;;
26050;SDS011;13825;53.496;10.020;2022-10-22T16:16:13;8.03;;;4.10;;
26050;SDS011;13825;53.496;10.020;2022-10-22T16:18:42;8.67;;;3.70;;